Time;durP1;ratioP1;P1;durP2;ratioP2;P2;SDS_P1;SDS_P2;PMS_P1;PMS_P2;Temp;Humidity;BMP_temperature;BMP_pressure;BME280_temperature;BME280_humidity;BME280_pressure;Samples;Min_cycle;Max_cycle;Signal;HPM_P1;HPM_P2
2022/06/23 00:02:26;;;;;;;;;51.25;44.00;;;;;23.04;68.80;100417.13;5091900;27;45446;-80
2022/06/23 00:04:56;;;;;;;;;50.00;42.75;;;;;23.09;68.88;100428.63;5087627;27;45436;-81
2022/06/23 00:07:26;;;;;;;;;49.50;42.25;;;;;23.15;68.71;100436.56;5091228;27;45778;-81
2022/06/23 00:09:57;;;;;;;;;49.75;42.00;;;;;23.08;68.97;100418.84;5081965;27;45763;-81
2022/06/23 00:12:28;;;;;;;;;51.50;44.00;;;;;23.14;68.28;100442.81;5084653;27;45608;-80
2022/06/23 00:15:07;;;;;;;;;49.25;42.25;;;;;22.94;68.23;100412.91;5092872;27;45512;-80
2022/06/23 00:17:45;;;;;;;;;51.50;43.25;;;;;23.11;68.33;100442.03;5087490;27;45704;-81
2022/06/23 00:20:18;;;;;;;;;51.00;43.25;;;;;22.93;68.37;100413.81;5092456;27;45407;-80
2022/06/23 00:22:49;;;;;;;;;55.75;46.50;;;;;23.06;68.10;100436.78;5092705;27;45558;-81
2022/06/23 00:25:36;;;;;;;;;56.50;46.75;;;;;23.04;68.18;100437.69;5090401;27;45684;-81
2022/06/23 00:28:02;;;;;;;;;55.75;46.50;;;;;23.03;68.31;100427.91;5091843;27;45948;-81
2022/06/23 00:30:41;;;;;;;;;55.75;46.75;;;;;22.91;68.76;100427.25;5092178;27;45728;-80
2022/06/23 00:33:14;;;;;;;;;57.25;48.25;;;;;22.96;69.16;100428.97;5091619;27;46632;-81
2022/06/23 00:35:40;;;;;;;;;56.75;47.25;;;;;22.81;69.18;100419.41;5091371;27;45732;-81
2022/06/23 00:38:05;;;;;;;;;57.50;47.75;;;;;22.88;69.04;100429.09;5092190;27;45854;-81
2022/06/23 00:40:31;;;;;;;;;62.25;51.00;;;;;22.81;69.00;100414.94;5092172;27;45689;-81
2022/06/23 00:43:02;;;;;;;;;59.75;50.00;;;;;22.94;69.36;100447.75;5090315;27;48517;-80
2022/06/23 00:45:40;;;;;;;;;64.50;53.25;;;;;22.91;69.05;100437.97;5091435;27;45562;-81
2022/06/23 00:48:16;;;;;;;;;66.00;54.50;;;;;22.91;69.41;100431.75;5089777;27;45700;-81
2022/06/23 00:50:56;;;;;;;;;64.50;53.75;;;;;22.74;69.47;100407.03;5082538;27;45565;-80
2022/06/23 00:53:39;;;;;;;;;60.00;50.00;;;;;22.53;69.10;100369.06;5086805;27;45470;-81
2022/06/23 00:56:26;;;;;;;;;64.25;52.75;;;;;22.83;69.28;100428.28;5081155;27;45750;-80
2022/06/23 00:59:00;;;;;;;;;58.50;48.75;;;;;22.80;69.68;100422.97;5059082;28;45428;-80
2022/06/23 01:01:41;;;;;;;;;66.75;55.50;;;;;22.80;69.38;100422.97;5068492;28;45430;-80
2022/06/23 01:04:40;;;;;;;;;63.75;52.00;;;;;22.79;69.54;100418.53;5068611;28;45645;-81
2022/06/23 01:07:30;;;;;;;;;62.75;51.00;;;;;22.78;69.41;100417.66;5042740;28;46107;-80
2022/06/23 01:10:14;;;;;;;;;63.25;52.25;;;;;22.79;69.61;100413.19;5081332;28;45188;-79
2022/06/23 01:12:49;;;;;;;;;61.75;51.00;;;;;22.78;69.55;100414.13;5071687;28;45507;-79
2022/06/23 01:15:36;;;;;;;;;60.75;50.50;;;;;22.76;69.60;100416.84;5051438;28;47997;-80
2022/06/23 01:18:20;;;;;;;;;56.50;47.75;;;;;22.77;69.69;100413.22;5082860;28;45168;-78
2022/06/23 01:21:04;;;;;;;;;55.75;46.00;;;;;22.76;69.95;100422.19;5089662;28;45175;-80
2022/06/23 01:23:50;;;;;;;;;54.25;46.00;;;;;22.76;69.86;100418.59;5089941;28;45168;-79
2022/06/23 01:26:34;;;;;;;;;54.25;46.25;;;;;22.76;69.69;100415.91;5070096;28;46849;-79
2022/06/23 01:29:11;;;;;;;;;49.50;42.00;;;;;22.76;69.79;100416.84;5087335;28;45469;-79
2022/06/23 01:31:48;;;;;;;;;50.25;42.50;;;;;22.50;69.81;100374.47;5090070;28;45405;-82
2022/06/23 01:34:28;;;;;;;;;48.75;42.25;;;;;22.75;70.05;100415.03;5089872;28;45178;-78
2022/06/23 01:37:11;;;;;;;;;44.75;38.50;;;;;22.51;69.70;100364.66;5088095;28;45484;-80
2022/06/23 01:40:32;;;;;;;;;44.50;37.75;;;;;22.70;70.22;100399.97;5084225;28;45233;-79
2022/06/23 01:43:11;;;;;;;;;41.50;37.25;;;;;22.69;69.95;100395.53;5028194;28;45249;-80
2022/06/23 01:45:45;;;;;;;;;24.75;24.50;;;;;22.80;70.03;100412.28;5068659;28;45190;-80
2022/06/23 01:48:52;;;;;;;;;22.00;22.00;;;;;22.79;70.22;100410.50;5085296;28;45528;-80
2022/06/23 01:51:45;;;;;;;;;24.50;24.00;;;;;22.76;69.94;100416.84;5089380;28;45317;-80
2022/06/23 01:54:12;;;;;;;;;12.50;12.50;;;;;22.79;69.87;100421.22;5076553;28;45254;-80
2022/06/23 01:57:14;;;;;;;;;17.25;16.75;;;;;22.74;69.89;100418.63;5086133;27;45231;-80
2022/06/23 01:59:45;;;;;;;;;14.25;14.25;;;;;22.75;69.78;100423.06;5081825;28;45993;-80
2022/06/23 02:02:10;;;;;;;;;17.00;16.50;;;;;22.73;69.79;100422.25;5088017;28;45544;-80
2022/06/23 02:05:00;;;;;;;;;14.33;13.33;;;;;22.40;69.92;100365.75;5060092;28;45545;-79
2022/06/23 02:07:36;;;;;;;;;15.25;14.25;;;;;22.55;69.22;100387.78;5085136;28;45484;-79
2022/06/23 02:10:30;;;;;;;;;15.25;15.00;;;;;22.61;69.40;100410.00;5085187;28;45746;-80
2022/06/23 02:13:14;;;;;;;;;16.75;16.75;;;;;22.61;69.54;100418.03;5038191;28;45408;-80
2022/06/23 02:16:05;;;;;;;;;13.00;13.00;;;;;22.60;69.86;100415.34;5058814;28;45520;-80
2022/06/23 02:18:37;;;;;;;;;13.25;12.75;;;;;22.53;69.26;100413.72;5064218;27;45592;-80
2022/06/23 02:21:14;;;;;;;;;12.00;11.00;;;;;22.54;69.55;100421.72;5070224;28;45571;-80
2022/06/23 02:23:47;;;;;;;;;15.00;14.25;;;;;22.44;69.12;100403.19;5064483;28;45532;-80
2022/06/23 02:26:23;;;;;;;;;10.50;10.00;;;;;22.32;69.51;100401.66;5067744;28;45364;-79
2022/06/23 02:29:00;;;;;;;;;10.25;9.25;;;;;22.28;69.24;100407.97;5069095;28;45656;-80
2022/06/23 02:31:52;;;;;;;;;8.75;8.75;;;;;22.23;68.83;100409.84;5069798;28;46130;-80
2022/06/23 02:34:47;;;;;;;;;6.50;6.50;;;;;22.27;68.89;100422.28;5051187;28;46281;-80
2022/06/23 02:37:43;;;;;;;;;6.25;6.25;;;;;22.18;69.01;100422.44;5070246;28;45764;-80
2022/06/23 02:40:36;;;;;;;;;9.75;9.25;;;;;21.96;68.71;100396.00;5069855;28;45443;-80
2022/06/23 02:43:17;;;;;;;;;10.75;10.75;;;;;21.84;68.80;100399.78;5027685;28;45804;-80
2022/06/23 02:46:04;;;;;;;;;11.00;10.75;;;;;21.91;69.24;100416.59;5070108;28;45669;-80
2022/06/23 02:48:41;;;;;;;;;9.75;9.75;;;;;21.70;69.26;100393.78;5069642;28;45462;-80
2022/06/23 02:51:09;;;;;;;;;8.75;8.00;;;;;21.83;69.48;100422.09;5070334;28;45365;-80
2022/06/23 02:54:00;;;;;;;;;9.25;9.00;;;;;21.61;69.77;100388.56;5070108;28;45651;-80
2022/06/23 02:56:58;;;;;;;;;10.25;9.50;;;;;21.84;69.36;100439.03;5065821;27;45718;-79
2022/06/23 02:59:39;;;;;;;;;12.00;11.00;;;;;21.68;69.55;100408.97;5063318;28;45518;-80
2022/06/23 03:02:20;;;;;;;;;9.25;8.50;;;;;21.77;69.35;100429.31;5069774;28;45421;-80
2022/06/23 03:04:48;;;;;;;;;10.75;10.00;;;;;21.74;69.33;100430.28;5069534;28;46512;-80
2022/06/23 03:07:24;;;;;;;;;16.50;16.50;;;;;21.68;69.17;100440.19;5068507;28;45659;-80
2022/06/23 03:10:13;;;;;;;;;9.75;9.00;;;;;21.43;69.57;100405.81;5064772;28;45863;-80
2022/06/23 03:12:49;;;;;;;;;11.75;11.75;;;;;21.41;69.71;100412.94;5069743;28;45462;-79
2022/06/23 03:15:27;;;;;;;;;11.25;11.25;;;;;21.47;69.85;100412.84;5051385;28;48171;-80
2022/06/23 03:18:02;;;;;;;;;16.75;16.25;;;;;21.68;69.34;100443.75;5070751;28;45827;-80
2022/06/23 03:20:47;;;;;;;;;9.25;9.25;;;;;21.64;69.14;100442.03;5073468;28;45993;-80
2022/06/23 03:23:36;;;;;;;;;10.50;10.50;;;;;21.60;69.29;100454.56;5054889;28;45583;-80
2022/06/23 03:26:08;;;;;;;;;10.75;10.75;;;;;21.57;69.54;100454.59;5073018;28;45727;-80
2022/06/23 03:28:43;;;;;;;;;28.75;27.75;;;;;21.42;68.90;100433.44;5073384;28;45330;-79
2022/06/23 03:31:23;;;;;;;;;23.25;23.00;;;;;21.49;69.21;100448.50;5073142;28;46280;-79
2022/06/23 03:33:52;;;;;;;;;32.75;30.25;;;;;21.30;69.25;100428.25;5072980;28;45453;-79
2022/06/23 03:36:32;;;;;;;;;21.50;21.50;;;;;21.28;69.79;100432.72;5056093;28;48555;-79
2022/06/23 03:42:05;;;;;;;;;31.50;30.25;;;;;21.33;69.48;100446.97;5073578;28;45351;-80
2022/06/23 03:44:42;;;;;;;;;21.50;21.00;;;;;21.24;69.57;100437.25;5070910;28;45707;-80
2022/06/23 03:47:40;;;;;;;;;20.00;20.00;;;;;21.35;69.63;100462.06;5070223;28;46131;-80
2022/06/23 03:50:16;;;;;;;;;27.25;27.25;;;;;21.36;69.32;100463.81;5069256;28;46153;-80
2022/06/23 03:52:47;;;;;;;;;23.25;23.25;;;;;21.12;69.96;100432.03;5065957;28;45726;-80
2022/06/23 03:55:28;;;;;;;;;21.50;21.50;;;;;21.11;69.92;100430.28;5071886;27;45684;-80
2022/06/23 03:57:59;;;;;;;;;21.00;21.00;;;;;21.02;70.03;100417.94;5072135;28;47376;-80
2022/06/23 04:00:41;;;;;;;;;25.25;24.25;;;;;21.35;69.95;100485.25;5070738;28;46231;-79
2022/06/23 04:03:27;;;;;;;;;27.50;27.00;;;;;21.36;70.40;100481.66;5067464;28;45798;-80
2022/06/23 04:05:55;;;;;;;;;22.50;21.75;;;;;21.37;70.29;100481.63;5047034;28;45844;-80
2022/06/23 04:08:28;;;;;;;;;20.75;20.75;;;;;21.17;69.95;100451.56;5065142;28;45449;-79
2022/06/23 04:10:58;;;;;;;;;26.25;26.25;;;;;21.37;70.15;100483.41;5071445;28;45519;-79
2022/06/23 04:13:30;;;;;;;;;24.75;24.75;;;;;21.40;70.24;100485.19;5070508;28;45819;-79
2022/06/23 04:16:02;;;;;;;;;33.50;31.00;;;;;21.11;69.94;100438.31;5071952;28;45514;-80
2022/06/23 04:18:30;;;;;;;;;23.50;21.25;;;;;21.36;70.18;100482.53;5071627;28;46972;-79
2022/06/23 04:21:08;;;;;;;;;24.50;23.75;;;;;21.33;70.49;100473.69;5073961;28;45830;-80
2022/06/23 04:23:42;;;;;;;;;24.00;23.75;;;;;21.41;70.06;100482.47;5072291;28;45502;-79
2022/06/23 04:26:25;;;;;;;;;26.50;26.50;;;;;21.46;69.85;100493.09;5063491;28;45372;-79
2022/06/23 04:28:56;;;;;;;;;27.25;26.50;;;;;21.27;69.81;100468.38;5071375;28;45542;-80
2022/06/23 04:31:32;;;;;;;;;16.75;16.50;;;;;21.31;69.87;100478.16;5068910;28;45382;-79
2022/06/23 04:34:00;;;;;;;;;22.25;22.25;;;;;21.28;70.08;100470.13;5069592;28;45531;-79
2022/06/23 04:36:29;;;;;;;;;23.25;23.25;;;;;21.20;69.76;100464.03;5070305;28;45791;-79
2022/06/23 04:39:07;;;;;;;;;23.00;22.25;;;;;21.43;70.28;100490.47;5070824;28;46597;-81
2022/06/23 04:41:43;;;;;;;;;24.00;24.00;;;;;21.42;69.91;100489.59;5072198;28;45923;-80
2022/06/23 04:44:19;;;;;;;;;26.00;26.00;;;;;21.57;69.76;100512.56;5066787;28;45801;-80
2022/06/23 04:46:50;;;;;;;;;21.75;21.00;;;;;21.61;69.61;100507.13;5054849;28;45490;-80
2022/06/23 04:49:22;;;;;;;;;20.75;20.50;;;;;21.64;69.81;100511.56;5049735;28;46149;-80
2022/06/23 04:51:50;;;;;;;;;21.00;20.75;;;;;21.56;69.14;100497.41;5069663;28;45746;-80
2022/06/23 04:54:22;;;;;;;;;24.50;24.50;;;;;21.67;68.83;100519.53;5050983;28;45344;-80
2022/06/23 04:57:03;;;;;;;;;26.25;26.25;;;;;21.69;68.87;100519.53;5073412;27;45695;-84
2022/06/23 04:59:49;;;;;;;;;26.50;26.25;;;;;21.27;68.36;100442.53;5086381;27;48095;-81
2022/06/23 05:02:30;;;;;;;;;33.00;31.25;;;;;21.67;68.21;100515.97;5083256;27;45714;-81
2022/06/23 05:05:07;;;;;;;;;31.25;29.25;;;;;21.61;68.30;100520.50;5093939;27;45534;-79
2022/06/23 05:07:45;;;;;;;;;23.50;22.25;;;;;21.61;68.14;100517.84;5089318;27;45692;-81
2022/06/23 05:10:29;;;;;;;;;31.50;30.75;;;;;21.64;68.44;100519.59;5075818;27;45862;-80
2022/06/23 05:13:01;;;;;;;;;25.50;25.50;;;;;21.59;67.83;100505.41;5091898;27;45540;-80
2022/06/23 05:15:32;;;;;;;;;28.75;26.75;;;;;21.56;67.70;100500.97;5086867;27;45894;-80
2022/06/23 05:18:03;;;;;;;;;26.00;25.75;;;;;21.67;67.65;100518.66;5091146;27;45670;-80
2022/06/23 05:20:31;;;;;;;;;26.50;26.25;;;;;21.67;68.10;100530.22;5090228;27;46033;-80
2022/06/23 05:22:57;;;;;;;;;41.50;36.75;;;;;21.50;67.44;100495.72;5089030;27;45232;-80
2022/06/23 05:25:31;;;;;;;;;38.75;34.75;;;;;21.72;68.08;100524.81;5093739;27;45452;-80
2022/06/23 05:27:57;;;;;;;;;33.50;31.75;;;;;21.53;67.51;100493.00;5090838;27;45395;-80
2022/06/23 05:30:34;;;;;;;;;30.25;29.75;;;;;21.60;67.47;100486.66;5104331;27;48363;-80
2022/06/23 05:33:29;;;;;;;;;32.25;31.00;;;;;21.83;66.95;100518.44;5089463;27;45685;-80
2022/06/23 05:36:03;;;;;;;;;31.75;31.00;;;;;21.84;66.85;100520.19;5090684;27;45367;-80
2022/06/23 05:38:46;;;;;;;;;34.25;32.75;;;;;21.84;66.50;100519.31;5090079;27;45897;-80
2022/06/23 05:41:26;;;;;;;;;32.75;31.25;;;;;21.78;66.29;100506.91;5091457;27;46729;-80
2022/06/23 05:43:54;;;;;;;;;34.50;32.75;;;;;21.73;66.89;100497.19;5094790;27;45629;-79
2022/06/23 05:46:23;;;;;;;;;35.25;32.75;;;;;21.78;66.19;100501.56;5100980;27;45581;-80
2022/06/23 05:49:35;;;;;;;;;34.50;32.75;;;;;21.76;66.42;100518.53;5097632;27;46948;-80
2022/06/23 05:52:04;;;;;;;;;35.25;33.50;;;;;21.72;66.39;100506.97;5090659;27;46109;-80
2022/06/23 05:55:12;;;;;;;;;41.50;37.25;;;;;21.61;66.33;100496.44;5091522;27;45913;-80
2022/06/23 05:57:53;;;;;;;;;33.00;31.75;;;;;21.60;66.26;100488.44;5036913;28;45502;-80
2022/06/23 06:00:42;;;;;;;;;29.50;29.25;;;;;21.72;65.59;100511.44;5098976;27;45767;-81
2022/06/23 06:03:16;;;;;;;;;26.25;26.00;;;;;21.50;65.73;100479.66;5109272;27;46157;-81
2022/06/23 06:05:45;;;;;;;;;33.25;31.75;;;;;21.64;65.90;100501.75;5095849;27;45492;-80
2022/06/23 06:08:21;;;;;;;;;27.75;26.25;;;;;21.62;65.90;100511.59;5107064;27;45427;-80
2022/06/23 06:10:48;;;;;;;;;30.50;29.00;;;;;21.59;66.07;100510.75;5105624;27;45072;-81
2022/06/23 06:13:22;;;;;;;;;28.00;28.00;;;;;21.60;66.30;100510.72;5108746;27;45451;-78
2022/06/23 06:15:52;;;;;;;;;29.75;29.00;;;;;21.48;65.96;100492.19;5101679;27;45234;-80
2022/06/23 06:18:37;;;;;;;;;29.00;28.25;;;;;21.62;66.10;100510.69;5108295;27;45016;-81
2022/06/23 06:21:07;;;;;;;;;28.50;27.25;;;;;21.64;66.18;100501.75;5109168;27;45000;-79
2022/06/23 06:23:49;;;;;;;;;28.25;27.75;;;;;21.50;66.26;100460.94;5107380;27;46290;-78
2022/06/23 06:26:18;;;;;;;;;30.25;30.00;;;;;21.64;66.15;100482.16;5108684;27;45529;-80
2022/06/23 06:28:44;;;;;;;;;38.50;34.75;;;;;21.52;65.80;100463.59;5109286;27;45118;-79
2022/06/23 06:31:26;;;;;;;;;27.25;26.00;;;;;21.68;65.87;100491.03;5108384;27;45372;-80
2022/06/23 06:34:09;;;;;;;;;25.25;24.50;;;;;21.76;66.32;100500.69;5109087;27;45675;-83
2022/06/23 06:36:40;;;;;;;;;26.00;26.00;;;;;21.73;66.08;100483.81;5109233;27;45350;-80
2022/06/23 06:39:21;;;;;;;;;31.25;31.00;;;;;21.76;65.14;100486.41;5108032;27;45075;-81
2022/06/23 06:41:52;;;;;;;;;33.50;32.00;;;;;21.74;65.28;100490.94;5107531;27;45153;-82
2022/06/23 06:44:18;;;;;;;;;35.50;33.50;;;;;21.69;65.35;100484.75;5106425;27;47031;-79
2022/06/23 06:46:44;;;;;;;;;31.75;31.25;;;;;21.68;65.20;100474.97;5108686;27;45166;-79
2022/06/23 06:49:21;;;;;;;;;35.25;33.50;;;;;21.84;65.69;100503.25;5108857;27;45432;-79
2022/06/23 06:51:49;;;;;;;;;31.50;31.00;;;;;21.88;65.36;100508.53;5108617;27;45313;-79
2022/06/23 06:54:38;;;;;;;;;33.50;32.00;;;;;21.94;65.85;100510.22;5124169;27;46133;-79
2022/06/23 06:57:12;;;;;;;;;32.00;31.25;;;;;21.37;65.21;100406.75;5105061;27;45283;-79
2022/06/23 06:59:57;;;;;;;;;35.00;33.25;;;;;21.37;65.18;100411.22;5106722;27;45071;-79
2022/06/23 07:03:09;;;;;;;;;31.75;30.25;;;;;21.68;65.33;100456.25;5108626;27;45471;-79
2022/06/23 07:05:41;;;;;;;;;35.00;32.75;;;;;21.78;65.07;100468.56;5044916;28;45348;-80
2022/06/23 07:08:27;;;;;;;;;34.00;32.25;;;;;21.78;64.90;100471.25;5092168;27;45385;-78
2022/06/23 07:11:05;;;;;;;;;34.75;32.75;;;;;22.03;64.77;100520.78;5089944;27;45526;-79
2022/06/23 07:13:38;;;;;;;;;36.00;33.25;;;;;22.02;64.50;100519.03;5089157;27;45716;-79
2022/06/23 07:16:12;;;;;;;;;35.00;33.00;;;;;20.89;64.23;100333.53;5084965;27;45741;-79
2022/06/23 07:18:45;;;;;;;;;31.75;30.75;;;;;21.66;64.67;100463.41;5104321;27;45836;-78
2022/06/23 07:21:24;;;;;;;;;34.25;32.75;;;;;21.57;64.65;100451.03;5089013;27;45717;-79
2022/06/23 07:24:11;;;;;;;;;33.00;31.75;;;;;22.02;64.57;100527.06;5088144;27;45765;-79
2022/06/23 07:26:58;;;;;;;;;33.50;31.75;;;;;22.04;64.74;100525.22;5084537;27;46379;-79
2022/06/23 07:29:41;;;;;;;;;34.50;32.50;;;;;22.08;64.27;100524.28;5104330;27;45725;-79
2022/06/23 07:32:35;;;;;;;;;31.75;30.75;;;;;22.03;63.80;100514.56;5084584;27;45643;-79
2022/06/23 07:35:19;;;;;;;;;28.75;28.75;;;;;22.13;64.21;100527.78;5084406;27;45691;-79
2022/06/23 07:38:02;;;;;;;;;37.50;33.75;;;;;22.08;64.07;100518.91;5089112;27;46829;-79
2022/06/23 07:40:33;;;;;;;;;38.75;34.25;;;;;21.87;63.40;100490.72;5102444;27;45587;-79
2022/06/23 07:43:20;;;;;;;;;38.00;35.00;;;;;22.10;63.42;100511.72;5086177;27;45734;-79
2022/06/23 07:45:54;;;;;;;;;37.50;34.25;;;;;21.59;63.32;100418.03;5086622;27;45298;-79
2022/06/23 07:48:26;;;;;;;;;38.50;35.00;;;;;20.99;63.37;100305.78;5086448;27;48095;-79
2022/06/23 07:50:51;;;;;;;;;42.25;36.25;;;;;22.32;63.06;100539.09;5089200;27;45760;-77
2022/06/23 07:53:28;;;;;;;;;36.50;34.25;;;;;21.70;63.09;100416.97;5088167;27;46424;-79
2022/06/23 07:55:58;;;;;;;;;34.00;32.25;;;;;21.91;62.88;100446.03;5087785;27;45702;-79
2022/06/23 07:58:34;;;;;;;;;43.25;38.00;;;;;21.59;62.65;100380.59;5086262;27;47682;-79
2022/06/23 08:01:13;;;;;;;;;41.25;36.75;;;;;21.58;62.92;100384.19;5088591;27;45411;-79
2022/06/23 08:03:47;;;;;;;;;42.50;37.75;;;;;22.43;62.58;100530.84;5089668;27;46111;-79
2022/06/23 08:06:18;;;;;;;;;43.50;38.50;;;;;22.24;62.68;100498.16;5091238;27;45381;-80
2022/06/23 08:08:45;;;;;;;;;43.00;38.00;;;;;22.30;62.08;100499.84;5093467;27;46379;-80
2022/06/23 08:14:22;;;;;;;;;39.25;36.00;;;;;22.35;61.86;100516.72;5092268;27;45823;-79
2022/06/23 08:16:50;;;;;;;;;39.00;35.50;;;;;22.23;62.21;100484.81;5091619;27;45603;-79
2022/06/23 08:19:27;;;;;;;;;47.25;39.75;;;;;22.49;61.60;100524.50;5092079;27;45624;-80
2022/06/23 08:22:01;;;;;;;;;41.50;37.50;;;;;22.40;62.03;100505.00;5091690;27;45458;-79
2022/06/23 08:24:26;;;;;;;;;38.75;35.75;;;;;22.45;61.45;100512.06;5089607;27;46197;-80
2022/06/23 08:26:55;;;;;;;;;44.25;38.50;;;;;22.43;61.46;100493.38;5088731;27;45813;-79
2022/06/23 08:29:29;;;;;;;;;40.00;36.25;;;;;22.61;61.15;100514.47;5092472;27;45630;-79
2022/06/23 08:31:55;;;;;;;;;46.25;39.75;;;;;22.57;61.46;100501.16;5091501;27;45631;-79
2022/06/23 08:34:22;;;;;;;;;40.50;36.50;;;;;22.67;61.15;100511.66;5091765;27;45509;-78
2022/06/23 08:36:51;;;;;;;;;32.00;31.25;;;;;22.78;60.81;100521.28;5091332;27;45576;-80
2022/06/23 08:39:30;;;;;;;;;34.75;32.25;;;;;22.82;61.43;100514.97;5091365;27;46451;-79
2022/06/23 08:42:16;;;;;;;;;35.50;33.50;;;;;22.73;60.79;100497.25;5091832;27;45842;-79
2022/06/23 08:44:55;;;;;;;;;38.50;35.25;;;;;22.92;60.73;100528.19;5091328;27;45601;-79
2022/06/23 08:47:33;;;;;;;;;35.00;32.25;;;;;22.76;60.65;100498.97;5089121;27;45307;-79
2022/06/23 08:50:11;;;;;;;;;31.50;30.50;;;;;23.02;60.56;100528.88;5084464;27;45664;-80
2022/06/23 08:52:43;;;;;;;;;28.75;28.50;;;;;22.98;60.94;100512.91;5070435;28;45630;-82
2022/06/23 08:55:13;;;;;;;;;37.00;34.00;;;;;23.16;60.72;100531.31;5098297;27;45416;-83
2022/06/23 08:57:42;;;;;;;;;37.00;33.50;;;;;23.30;60.33;100530.97;5084503;27;45236;-82
2022/06/23 09:00:20;;;;;;;;;40.00;36.00;;;;;23.38;60.94;100504.91;5071014;28;46548;-81
2022/06/23 09:02:54;;;;;;;;;39.00;34.00;;;;;23.65;60.39;100511.50;5053462;28;45747;-82
2022/06/23 09:05:26;;;;;;;;;42.25;37.50;;;;;23.87;60.12;100517.22;5071021;28;45750;-80
2022/06/23 09:08:23;;;;;;;;;37.25;33.75;;;;;23.97;59.36;100518.78;5071753;28;45530;-81
2022/06/23 09:10:55;;;;;;;;;37.25;33.50;;;;;24.06;58.91;100512.31;5029578;28;45424;-81
2022/06/23 09:13:32;;;;;;;;;39.75;35.25;;;;;24.13;58.63;100517.47;5050307;28;45455;-81
2022/06/23 09:16:16;;;;;;;;;40.50;36.00;;;;;23.92;58.58;100467.00;5049425;28;45547;-80
2022/06/23 09:19:03;;;;;;;;;42.75;35.75;;;;;24.27;58.00;100524.31;5050464;28;45673;-80
2022/06/23 09:21:44;;;;;;;;;36.25;33.00;;;;;24.23;57.87;100511.88;5031387;28;47747;-80
2022/06/23 09:24:36;;;;;;;;;32.00;30.50;;;;;24.12;58.02;100513.03;5050143;28;45521;-80
2022/06/23 09:27:08;;;;;;;;;35.50;32.75;;;;;24.00;58.12;100512.47;5050160;28;45467;-79
2022/06/23 09:29:33;;;;;;;;;35.75;33.00;;;;;23.92;58.17;100515.31;5050310;28;45348;-80
2022/06/23 09:32:06;;;;;;;;;34.67;31.00;;;;;23.84;58.30;100510.16;5049740;28;46283;-80
2022/06/23 09:34:57;;;;;;;;;35.25;33.00;;;;;23.84;57.81;100511.91;5031059;28;45449;-81
2022/06/23 09:37:41;;;;;;;;;36.25;33.25;;;;;23.80;57.94;100496.84;5050303;28;45693;-81
2022/06/23 09:40:06;;;;;;;;;38.75;34.75;;;;;23.84;58.25;100495.81;5050216;28;45618;-81
2022/06/23 09:43:10;;;;;;;;;35.33;32.00;;;;;23.91;58.04;100505.50;5031291;28;46417;-80
2022/06/23 09:45:51;;;;;;;;;36.75;33.50;;;;;23.88;57.75;100481.41;5049519;28;45583;-81
2022/06/23 09:48:41;;;;;;;;;39.75;34.75;;;;;24.06;57.21;100504.25;5050362;28;45553;-81
2022/06/23 09:51:25;;;;;;;;;38.50;34.50;;;;;24.03;57.80;100505.19;5050112;28;45459;-81
2022/06/23 09:54:38;;;;;;;;;35.00;32.50;;;;;23.97;57.66;100499.09;5050733;28;45933;-81
2022/06/23 09:57:22;;;;;;;;;38.00;34.00;;;;;24.09;57.44;100515.81;4980148;28;45851;-81
2022/06/23 09:59:51;;;;;;;;;35.75;33.00;;;;;24.19;57.10;100497.66;5069555;28;45522;-81
2022/06/23 10:02:54;;;;;;;;;37.25;33.75;;;;;24.25;56.69;100483.19;5070424;28;45380;-81
2022/06/23 10:05:31;;;;;;;;;37.50;34.00;;;;;24.62;56.84;100497.41;5069699;28;45653;-83
2022/06/23 10:08:21;;;;;;;;;33.50;32.25;;;;;24.96;57.08;100502.75;5070383;28;45516;-81
2022/06/23 10:11:05;;;;;;;;;37.00;33.75;;;;;25.13;54.87;100505.00;5070917;27;45478;-81
2022/06/23 10:13:33;;;;;;;;;31.75;30.75;;;;;25.12;54.45;100502.31;5068422;28;45529;-81
2022/06/23 10:16:41;;;;;;;;;42.00;36.50;;;;;25.26;54.88;100502.81;5068286;28;48173;-80
2022/06/23 10:19:27;;;;;;;;;41.75;37.00;;;;;25.40;54.37;100488.94;5047380;28;45519;-82
2022/06/23 10:22:01;;;;;;;;;38.00;34.00;;;;;25.57;54.19;100500.09;5073780;27;45454;-88
2022/06/23 10:25:05;;;;;;;;;43.00;37.00;;;;;25.47;53.01;100506.69;5109133;27;45684;-81
2022/06/23 10:27:57;;;;;;;;;38.00;34.50;;;;;25.32;53.80;100507.13;5044450;27;45518;-82
2022/06/23 10:30:40;;;;;;;;;35.50;33.25;;;;;25.10;53.31;100478.19;5091528;27;45666;-82
2022/06/23 10:33:11;;;;;;;;;35.25;33.00;;;;;25.08;53.46;100463.91;5114375;27;45445;-83
2022/06/23 10:35:55;;;;;;;;;34.00;32.25;;;;;25.26;53.52;100493.84;5116740;27;45995;-82
2022/06/23 10:38:25;;;;;;;;;30.75;30.50;;;;;25.10;53.18;100467.41;5106644;27;46142;-82
2022/06/23 10:41:02;;;;;;;;;37.25;34.25;;;;;25.25;53.59;100502.88;5096368;27;45698;-82
2022/06/23 10:44:05;;;;;;;;;36.25;33.50;;;;;25.26;52.98;100497.44;5087810;27;45369;-82
2022/06/23 10:46:49;;;;;;;;;39.75;35.50;;;;;25.31;52.60;100479.34;5068981;28;45806;-81
2022/06/23 10:49:32;;;;;;;;;36.50;33.25;;;;;25.42;52.87;100488.00;5071099;28;46080;-82
2022/06/23 10:52:03;;;;;;;;;34.75;33.00;;;;;25.47;51.70;100482.47;5085680;27;45422;-82
2022/06/23 10:55:13;;;;;;;;;36.25;33.00;;;;;25.42;52.22;100462.91;5092006;27;45408;-81
2022/06/23 10:57:54;;;;;;;;;34.50;32.50;;;;;25.63;52.25;100480.16;5088175;27;45476;-82
2022/06/23 11:00:30;;;;;;;;;37.75;34.50;;;;;25.67;51.27;100477.34;5089268;27;45536;-82
2022/06/23 11:03:14;;;;;;;;;37.50;33.25;;;;;25.87;51.92;100492.88;5093162;27;45492;-81
2022/06/23 11:05:51;;;;;;;;;39.25;34.75;;;;;25.84;51.05;100454.38;5088731;27;45417;-82
2022/06/23 11:08:57;;;;;;;;;35.25;32.75;;;;;26.05;50.30;100469.81;5087445;27;45413;-82
2022/06/23 11:11:48;;;;;;;;;37.25;34.00;;;;;25.99;50.30;100432.34;5058930;27;45705;-81
2022/06/23 11:14:51;;;;;;;;;38.00;34.50;;;;;26.27;49.75;100475.38;5069997;28;45375;-82
2022/06/23 11:17:34;;;;;;;;;42.75;37.50;;;;;26.33;50.71;100472.47;5069265;28;45565;-81
2022/06/23 11:20:18;;;;;;;;;42.25;36.75;;;;;26.43;50.49;100468.53;5075790;27;45522;-81
2022/06/23 11:23:03;;;;;;;;;39.25;35.50;;;;;26.50;50.30;100450.31;5090314;27;46334;-81
2022/06/23 11:25:47;;;;;;;;;40.00;35.75;;;;;26.74;50.26;100459.34;5090853;27;45852;-81
2022/06/23 11:28:47;;;;;;;;;39.25;35.25;;;;;26.81;48.73;100455.50;5110103;27;45440;-82
2022/06/23 11:31:15;;;;;;;;;41.75;36.75;;;;;26.95;49.04;100455.00;5089604;27;45598;-81
2022/06/23 11:34:17;;;;;;;;;41.25;36.25;;;;;26.91;49.29;100435.34;5089271;27;46055;-81
2022/06/23 11:36:42;;;;;;;;;40.75;36.25;;;;;27.17;49.50;100453.25;5066433;27;45607;-85
2022/06/23 11:39:26;;;;;;;;;43.33;38.00;;;;;27.23;48.23;100452.13;5091343;27;45526;-82
2022/06/23 11:42:19;;;;;;;;;43.50;38.25;;;;;27.11;47.93;100439.13;5093593;27;45565;-82
2022/06/23 11:45:10;;;;;;;;;41.25;35.50;;;;;26.96;47.91;100427.09;5092928;27;46979;-81
2022/06/23 11:47:39;;;;;;;;;43.50;38.25;;;;;27.02;48.14;100437.63;5051694;27;45433;-81
2022/06/23 11:50:22;;;;;;;;;41.00;36.00;;;;;27.06;48.90;100433.88;5094047;27;45591;-86
2022/06/23 11:52:54;;;;;;;;;35.00;32.75;;;;;27.19;49.06;100437.00;5094428;27;45546;-82
2022/06/23 11:55:52;;;;;;;;;38.50;34.75;;;;;27.25;47.86;100428.69;5088998;27;47476;-83
2022/06/23 11:58:44;;;;;;;;;42.25;37.00;;;;;27.29;47.56;100430.34;5089375;27;45491;-82
2022/06/23 12:01:21;;;;;;;;;41.25;35.75;;;;;27.22;48.16;100391.91;5079666;27;45519;-83
2022/06/23 12:04:24;;;;;;;;;39.75;35.75;;;;;27.55;47.69;100415.78;5091250;27;45567;-83
2022/06/23 12:07:01;;;;;;;;;41.50;36.25;;;;;27.75;46.98;100418.56;5092992;27;45423;-83
2022/06/23 12:09:43;;;;;;;;;42.25;37.00;;;;;27.80;46.25;100414.81;5080667;27;45468;-83
2022/06/23 12:12:08;;;;;;;;;46.25;39.75;;;;;27.68;45.81;100386.44;5071756;28;45375;-84